sensor_id;sensor_type;location;lat;lon;timestamp;P1;durP1;ratioP1;P2;durP2;ratioP2
75620;SDS011;64574;48.506;-2.750;2023-05-17T00:02:01;4.35;;;1.50;;
75620;SDS011;64574;48.506;-2.750;2023-05-17T00:04:27;2.50;;;1.25;;
75620;SDS011;64574;48.506;-2.750;2023-05-17T00:06:52;6.35;;;1.80;;
75620;SDS011;64574;48.506;-2.750;2023-05-17T00:09:18;5.45;;;1.50;;
75620;SDS011;64574;48.506;-2.750;2023-05-17T00:11:44;8.60;;;1.65;;
75620;SDS011;64574;48.506;-2.750;2023-05-17T00:14:09;4.18;;;1.40;;
75620;SDS011;64574;48.506;-2.750;2023-05-17T00:16:36;5.50;;;1.42;;
75620;SDS011;64574;48.506;-2.750;2023-05-17T00:19:02;5.40;;;2.05;;
75620;SDS011;64574;48.506;-2.750;2023-05-17T00:21:27;4.07;;;1.40;;
75620;SDS011;64574;48.506;-2.750;2023-05-17T00:23:53;5.90;;;1.30;;
75620;SDS011;64574;48.506;-2.750;2023-05-17T00:26:18;5.25;;;1.40;;
75620;SDS011;64574;48.506;-2.750;2023-05-17T00:28:44;5.50;;;1.40;;
75620;SDS011;64574;48.506;-2.750;2023-05-17T00:31:10;5.15;;;1.23;;
75620;SDS011;64574;48.506;-2.750;2023-05-17T00:33:35;5.13;;;1.40;;
75620;SDS011;64574;48.506;-2.750;2023-05-17T00:36:01;4.10;;;1.40;;
75620;SDS011;64574;48.506;-2.750;2023-05-17T00:38:27;5.15;;;1.25;;
75620;SDS011;64574;48.506;-2.750;2023-05-17T00:40:52;3.25;;;1.00;;
75620;SDS011;64574;48.506;-2.750;2023-05-17T00:43:18;4.47;;;1.40;;
75620;SDS011;64574;48.506;-2.750;2023-05-17T00:45:43;5.78;;;1.20;;
75620;SDS011;64574;48.506;-2.750;2023-05-17T00:48:09;5.53;;;1.33;;
75620;SDS011;64574;48.506;-2.750;2023-05-17T00:50:35;3.50;;;1.30;;
75620;SDS011;64574;48.506;-2.750;2023-05-17T00:53:01;8.40;;;1.52;;
75620;SDS011;64574;48.506;-2.750;2023-05-17T00:55:27;4.95;;;1.27;;
75620;SDS011;64574;48.506;-2.750;2023-05-17T00:57:54;5.35;;;1.30;;
75620;SDS011;64574;48.506;-2.750;2023-05-17T01:00:19;4.10;;;1.13;;
75620;SDS011;64574;48.506;-2.750;2023-05-17T01:02:46;6.00;;;1.60;;
75620;SDS011;64574;48.506;-2.750;2023-05-17T01:05:12;5.00;;;1.30;;
75620;SDS011;64574;48.506;-2.750;2023-05-17T01:07:39;4.68;;;1.20;;
75620;SDS011;64574;48.506;-2.750;2023-05-17T01:10:05;5.30;;;1.40;;
75620;SDS011;64574;48.506;-2.750;2023-05-17T01:17:40;6.60;;;1.10;;
75620;SDS011;64574;48.506;-2.750;2023-05-17T01:28:13;4.90;;;1.30;;
75620;SDS011;64574;48.506;-2.750;2023-05-17T01:30:41;4.70;;;1.30;;
75620;SDS011;64574;48.506;-2.750;2023-05-17T01:33:11;4.45;;;1.73;;
75620;SDS011;64574;48.506;-2.750;2023-05-17T01:35:37;4.70;;;1.10;;
75620;SDS011;64574;48.506;-2.750;2023-05-17T01:38:02;5.70;;;2.00;;
75620;SDS011;64574;48.506;-2.750;2023-05-17T01:40:28;4.10;;;1.40;;
75620;SDS011;64574;48.506;-2.750;2023-05-17T01:43:02;3.97;;;1.20;;
75620;SDS011;64574;48.506;-2.750;2023-05-17T01:45:39;3.92;;;1.63;;
75620;SDS011;64574;48.506;-2.750;2023-05-17T01:50:46;3.08;;;1.00;;
75620;SDS011;64574;48.506;-2.750;2023-05-17T01:53:36;5.53;;;1.30;;
75620;SDS011;64574;48.506;-2.750;2023-05-17T01:56:19;4.50;;;1.23;;
75620;SDS011;64574;48.506;-2.750;2023-05-17T01:58:51;3.38;;;1.75;;
75620;SDS011;64574;48.506;-2.750;2023-05-17T02:01:17;5.72;;;1.40;;
75620;SDS011;64574;48.506;-2.750;2023-05-17T02:03:46;4.95;;;1.20;;
75620;SDS011;64574;48.506;-2.750;2023-05-17T02:06:13;1.88;;;1.27;;
75620;SDS011;64574;48.506;-2.750;2023-05-17T02:08:38;4.13;;;1.60;;
75620;SDS011;64574;48.506;-2.750;2023-05-17T02:11:04;5.45;;;1.40;;
75620;SDS011;64574;48.506;-2.750;2023-05-17T02:13:30;5.85;;;1.73;;
75620;SDS011;64574;48.506;-2.750;2023-05-17T02:15:58;4.43;;;2.35;;
75620;SDS011;64574;48.506;-2.750;2023-05-17T02:18:25;6.32;;;1.60;;
75620;SDS011;64574;48.506;-2.750;2023-05-17T02:20:51;5.85;;;1.30;;
75620;SDS011;64574;48.506;-2.750;2023-05-17T02:23:17;7.93;;;1.63;;
75620;SDS011;64574;48.506;-2.750;2023-05-17T02:25:42;4.93;;;1.20;;
75620;SDS011;64574;48.506;-2.750;2023-05-17T02:28:08;6.43;;;1.50;;
75620;SDS011;64574;48.506;-2.750;2023-05-17T02:30:34;4.28;;;1.33;;
75620;SDS011;64574;48.506;-2.750;2023-05-17T02:33:01;4.75;;;1.15;;
75620;SDS011;64574;48.506;-2.750;2023-05-17T02:35:26;6.38;;;1.40;;
75620;SDS011;64574;48.506;-2.750;2023-05-17T02:37:52;3.97;;;1.33;;
75620;SDS011;64574;48.506;-2.750;2023-05-17T02:40:17;4.30;;;1.50;;
75620;SDS011;64574;48.506;-2.750;2023-05-17T02:42:43;5.05;;;1.65;;
75620;SDS011;64574;48.506;-2.750;2023-05-17T02:45:09;5.78;;;1.48;;
75620;SDS011;64574;48.506;-2.750;2023-05-17T02:47:35;3.40;;;1.92;;
75620;SDS011;64574;48.506;-2.750;2023-05-17T02:50:00;4.60;;;1.70;;
75620;SDS011;64574;48.506;-2.750;2023-05-17T02:52:26;4.20;;;1.38;;
75620;SDS011;64574;48.506;-2.750;2023-05-17T02:54:51;4.80;;;1.67;;
75620;SDS011;64574;48.506;-2.750;2023-05-17T02:57:17;4.25;;;1.65;;
75620;SDS011;64574;48.506;-2.750;2023-05-17T02:59:43;3.20;;;1.40;;
75620;SDS011;64574;48.506;-2.750;2023-05-17T03:02:08;3.67;;;1.58;;
75620;SDS011;64574;48.506;-2.750;2023-05-17T03:04:34;5.07;;;1.65;;
75620;SDS011;64574;48.506;-2.750;2023-05-17T03:06:59;4.82;;;1.48;;
75620;SDS011;64574;48.506;-2.750;2023-05-17T03:09:25;3.50;;;1.45;;
75620;SDS011;64574;48.506;-2.750;2023-05-17T03:11:53;5.88;;;1.55;;
75620;SDS011;64574;48.506;-2.750;2023-05-17T03:14:19;4.60;;;1.52;;
75620;SDS011;64574;48.506;-2.750;2023-05-17T03:16:45;7.28;;;2.10;;
75620;SDS011;64574;48.506;-2.750;2023-05-17T03:19:10;3.83;;;1.75;;
75620;SDS011;64574;48.506;-2.750;2023-05-17T03:21:36;6.40;;;2.10;;
75620;SDS011;64574;48.506;-2.750;2023-05-17T03:24:02;4.70;;;2.03;;
75620;SDS011;64574;48.506;-2.750;2023-05-17T03:26:27;3.83;;;1.58;;
75620;SDS011;64574;48.506;-2.750;2023-05-17T03:28:53;3.15;;;1.88;;
75620;SDS011;64574;48.506;-2.750;2023-05-17T03:31:18;6.22;;;2.03;;
75620;SDS011;64574;48.506;-2.750;2023-05-17T03:33:44;3.67;;;1.70;;
75620;SDS011;64574;48.506;-2.750;2023-05-17T03:36:10;3.78;;;1.98;;
75620;SDS011;64574;48.506;-2.750;2023-05-17T03:38:35;5.03;;;2.20;;
75620;SDS011;64574;48.506;-2.750;2023-05-17T03:41:01;3.75;;;1.92;;
75620;SDS011;64574;48.506;-2.750;2023-05-17T03:43:27;3.42;;;1.70;;
75620;SDS011;64574;48.506;-2.750;2023-05-17T03:45:53;6.28;;;1.95;;
75620;SDS011;64574;48.506;-2.750;2023-05-17T03:48:19;3.45;;;1.80;;
75620;SDS011;64574;48.506;-2.750;2023-05-17T03:50:44;5.18;;;2.08;;
75620;SDS011;64574;48.506;-2.750;2023-05-17T03:53:10;6.05;;;2.10;;
75620;SDS011;64574;48.506;-2.750;2023-05-17T03:55:36;5.60;;;1.63;;
75620;SDS011;64574;48.506;-2.750;2023-05-17T03:58:01;8.02;;;2.05;;
75620;SDS011;64574;48.506;-2.750;2023-05-17T04:00:27;5.80;;;1.80;;
75620;SDS011;64574;48.506;-2.750;2023-05-17T04:02:53;4.13;;;1.83;;
75620;SDS011;64574;48.506;-2.750;2023-05-17T04:05:18;5.68;;;2.45;;
75620;SDS011;64574;48.506;-2.750;2023-05-17T04:07:44;6.10;;;2.45;;
75620;SDS011;64574;48.506;-2.750;2023-05-17T04:10:10;7.28;;;3.08;;
75620;SDS011;64574;48.506;-2.750;2023-05-17T04:12:35;5.75;;;2.05;;
75620;SDS011;64574;48.506;-2.750;2023-05-17T04:15:02;5.40;;;2.10;;
75620;SDS011;64574;48.506;-2.750;2023-05-17T04:17:28;3.85;;;1.80;;
75620;SDS011;64574;48.506;-2.750;2023-05-17T04:19:54;4.45;;;2.03;;
75620;SDS011;64574;48.506;-2.750;2023-05-17T04:22:19;6.22;;;2.10;;
75620;SDS011;64574;48.506;-2.750;2023-05-17T04:24:45;5.20;;;2.05;;
75620;SDS011;64574;48.506;-2.750;2023-05-17T04:27:11;5.60;;;2.25;;
75620;SDS011;64574;48.506;-2.750;2023-05-17T04:29:37;5.18;;;2.05;;
75620;SDS011;64574;48.506;-2.750;2023-05-17T04:32:02;5.07;;;2.22;;
75620;SDS011;64574;48.506;-2.750;2023-05-17T04:34:28;5.53;;;2.17;;
75620;SDS011;64574;48.506;-2.750;2023-05-17T04:36:56;8.20;;;2.13;;
75620;SDS011;64574;48.506;-2.750;2023-05-17T04:39:22;4.60;;;2.08;;
75620;SDS011;64574;48.506;-2.750;2023-05-17T04:41:47;7.97;;;2.50;;
75620;SDS011;64574;48.506;-2.750;2023-05-17T04:44:13;6.13;;;2.15;;
75620;SDS011;64574;48.506;-2.750;2023-05-17T04:46:39;5.47;;;1.95;;
75620;SDS011;64574;48.506;-2.750;2023-05-17T04:49:06;8.05;;;2.42;;
75620;SDS011;64574;48.506;-2.750;2023-05-17T04:51:32;3.78;;;2.22;;
75620;SDS011;64574;48.506;-2.750;2023-05-17T04:53:58;8.88;;;2.50;;
75620;SDS011;64574;48.506;-2.750;2023-05-17T04:56:27;4.88;;;2.10;;
75620;SDS011;64574;48.506;-2.750;2023-05-17T04:58:53;4.75;;;2.33;;
75620;SDS011;64574;48.506;-2.750;2023-05-17T05:01:19;9.50;;;2.80;;
75620;SDS011;64574;48.506;-2.750;2023-05-17T05:03:44;10.07;;;3.00;;
75620;SDS011;64574;48.506;-2.750;2023-05-17T05:06:10;4.35;;;2.35;;
75620;SDS011;64574;48.506;-2.750;2023-05-17T05:08:36;8.00;;;2.25;;
75620;SDS011;64574;48.506;-2.750;2023-05-17T05:11:02;6.63;;;2.40;;
75620;SDS011;64574;48.506;-2.750;2023-05-17T05:13:27;5.13;;;2.75;;
75620;SDS011;64574;48.506;-2.750;2023-05-17T05:15:53;6.90;;;2.80;;
75620;SDS011;64574;48.506;-2.750;2023-05-17T05:18:19;4.75;;;2.42;;
75620;SDS011;64574;48.506;-2.750;2023-05-17T05:20:45;5.60;;;2.50;;
75620;SDS011;64574;48.506;-2.750;2023-05-17T05:23:12;6.75;;;2.72;;
75620;SDS011;64574;48.506;-2.750;2023-05-17T05:25:38;5.50;;;2.55;;
75620;SDS011;64574;48.506;-2.750;2023-05-17T05:28:03;7.03;;;2.83;;
75620;SDS011;64574;48.506;-2.750;2023-05-17T05:30:30;8.05;;;2.60;;
75620;SDS011;64574;48.506;-2.750;2023-05-17T05:32:58;5.10;;;2.50;;
75620;SDS011;64574;48.506;-2.750;2023-05-17T05:35:24;5.50;;;2.90;;
75620;SDS011;64574;48.506;-2.750;2023-05-17T05:37:53;7.13;;;3.08;;
75620;SDS011;64574;48.506;-2.750;2023-05-17T05:40:20;5.05;;;2.90;;
75620;SDS011;64574;48.506;-2.750;2023-05-17T05:42:46;7.15;;;2.83;;
75620;SDS011;64574;48.506;-2.750;2023-05-17T05:45:11;7.70;;;3.00;;
75620;SDS011;64574;48.506;-2.750;2023-05-17T05:47:37;6.72;;;3.33;;
75620;SDS011;64574;48.506;-2.750;2023-05-17T05:50:03;7.25;;;2.90;;
75620;SDS011;64574;48.506;-2.750;2023-05-17T05:52:30;5.88;;;2.80;;
75620;SDS011;64574;48.506;-2.750;2023-05-17T05:54:56;9.85;;;3.28;;
75620;SDS011;64574;48.506;-2.750;2023-05-17T05:57:21;8.85;;;2.80;;
75620;SDS011;64574;48.506;-2.750;2023-05-17T05:59:47;8.13;;;3.58;;
75620;SDS011;64574;48.506;-2.750;2023-05-17T06:02:12;8.32;;;3.25;;
75620;SDS011;64574;48.506;-2.750;2023-05-17T06:04:38;5.03;;;2.97;;
75620;SDS011;64574;48.506;-2.750;2023-05-17T06:07:03;7.43;;;3.05;;
75620;SDS011;64574;48.506;-2.750;2023-05-17T06:09:29;8.18;;;3.10;;
75620;SDS011;64574;48.506;-2.750;2023-05-17T06:11:55;6.68;;;3.30;;
75620;SDS011;64574;48.506;-2.750;2023-05-17T06:14:21;8.02;;;2.78;;
75620;SDS011;64574;48.506;-2.750;2023-05-17T06:16:46;7.82;;;2.83;;
75620;SDS011;64574;48.506;-2.750;2023-05-17T06:19:12;5.40;;;3.15;;
75620;SDS011;64574;48.506;-2.750;2023-05-17T06:21:39;8.95;;;2.95;;
75620;SDS011;64574;48.506;-2.750;2023-05-17T06:24:04;7.63;;;3.25;;
75620;SDS011;64574;48.506;-2.750;2023-05-17T06:26:30;5.22;;;2.75;;
75620;SDS011;64574;48.506;-2.750;2023-05-17T06:28:56;7.28;;;2.80;;
75620;SDS011;64574;48.506;-2.750;2023-05-17T06:31:21;6.65;;;2.72;;
75620;SDS011;64574;48.506;-2.750;2023-05-17T06:33:47;8.45;;;3.10;;
75620;SDS011;64574;48.506;-2.750;2023-05-17T06:36:13;8.70;;;3.20;;
75620;SDS011;64574;48.506;-2.750;2023-05-17T06:38:38;6.68;;;3.00;;
75620;SDS011;64574;48.506;-2.750;2023-05-17T06:41:04;9.63;;;3.03;;
75620;SDS011;64574;48.506;-2.750;2023-05-17T06:43:30;5.63;;;2.70;;
75620;SDS011;64574;48.506;-2.750;2023-05-17T06:45:55;7.50;;;2.72;;
75620;SDS011;64574;48.506;-2.750;2023-05-17T06:48:21;11.05;;;3.15;;
75620;SDS011;64574;48.506;-2.750;2023-05-17T06:50:46;8.68;;;3.55;;
75620;SDS011;64574;48.506;-2.750;2023-05-17T06:53:12;6.43;;;3.20;;
75620;SDS011;64574;48.506;-2.750;2023-05-17T06:55:38;8.70;;;3.03;;
75620;SDS011;64574;48.506;-2.750;2023-05-17T06:58:04;8.57;;;2.95;;
75620;SDS011;64574;48.506;-2.750;2023-05-17T07:00:30;8.30;;;3.13;;
75620;SDS011;64574;48.506;-2.750;2023-05-17T07:02:56;6.93;;;3.03;;
75620;SDS011;64574;48.506;-2.750;2023-05-17T07:05:21;6.15;;;2.38;;
75620;SDS011;64574;48.506;-2.750;2023-05-17T07:07:48;8.77;;;2.40;;
75620;SDS011;64574;48.506;-2.750;2023-05-17T07:10:14;5.93;;;2.92;;
75620;SDS011;64574;48.506;-2.750;2023-05-17T07:12:40;14.48;;;3.30;;
75620;SDS011;64574;48.506;-2.750;2023-05-17T07:15:06;7.57;;;2.88;;
75620;SDS011;64574;48.506;-2.750;2023-05-17T07:17:32;7.72;;;2.53;;
75620;SDS011;64574;48.506;-2.750;2023-05-17T07:19:57;5.05;;;2.05;;
75620;SDS011;64574;48.506;-2.750;2023-05-17T07:22:23;5.40;;;2.58;;
75620;SDS011;64574;48.506;-2.750;2023-05-17T07:24:49;5.50;;;2.20;;
75620;SDS011;64574;48.506;-2.750;2023-05-17T07:27:15;7.75;;;2.50;;
75620;SDS011;64574;48.506;-2.750;2023-05-17T07:29:41;5.88;;;2.35;;
75620;SDS011;64574;48.506;-2.750;2023-05-17T07:32:07;6.00;;;2.05;;
75620;SDS011;64574;48.506;-2.750;2023-05-17T07:34:33;6.18;;;2.40;;
75620;SDS011;64574;48.506;-2.750;2023-05-17T07:37:00;9.02;;;3.10;;
75620;SDS011;64574;48.506;-2.750;2023-05-17T07:39:26;5.80;;;2.08;;
75620;SDS011;64574;48.506;-2.750;2023-05-17T07:41:51;8.23;;;2.40;;
75620;SDS011;64574;48.506;-2.750;2023-05-17T07:44:17;4.60;;;2.10;;
75620;SDS011;64574;48.506;-2.750;2023-05-17T07:46:42;5.72;;;2.53;;
75620;SDS011;64574;48.506;-2.750;2023-05-17T07:49:08;5.30;;;2.20;;
75620;SDS011;64574;48.506;-2.750;2023-05-17T07:51:33;5.35;;;1.92;;
75620;SDS011;64574;48.506;-2.750;2023-05-17T07:54:00;8.13;;;2.35;;
75620;SDS011;64574;48.506;-2.750;2023-05-17T07:56:27;6.35;;;2.67;;
75620;SDS011;64574;48.506;-2.750;2023-05-17T07:58:53;5.38;;;2.40;;
75620;SDS011;64574;48.506;-2.750;2023-05-17T08:01:19;8.57;;;2.50;;
75620;SDS011;64574;48.506;-2.750;2023-05-17T08:03:45;4.88;;;1.90;;
75620;SDS011;64574;48.506;-2.750;2023-05-17T08:06:17;6.78;;;2.10;;
75620;SDS011;64574;48.506;-2.750;2023-05-17T08:08:42;6.50;;;2.50;;
75620;SDS011;64574;48.506;-2.750;2023-05-17T08:11:09;5.25;;;2.40;;
75620;SDS011;64574;48.506;-2.750;2023-05-17T08:13:35;7.07;;;2.50;;
75620;SDS011;64574;48.506;-2.750;2023-05-17T08:16:01;6.30;;;2.53;;
75620;SDS011;64574;48.506;-2.750;2023-05-17T08:18:32;5.53;;;2.15;;
75620;SDS011;64574;48.506;-2.750;2023-05-17T08:20:58;6.13;;;2.58;;
75620;SDS011;64574;48.506;-2.750;2023-05-17T08:23:23;5.55;;;2.28;;
75620;SDS011;64574;48.506;-2.750;2023-05-17T08:25:49;6.53;;;2.17;;
75620;SDS011;64574;48.506;-2.750;2023-05-17T08:28:15;5.38;;;2.47;;
75620;SDS011;64574;48.506;-2.750;2023-05-17T08:30:41;7.60;;;2.45;;
75620;SDS011;64574;48.506;-2.750;2023-05-17T08:33:09;9.27;;;2.30;;
75620;SDS011;64574;48.506;-2.750;2023-05-17T08:35:36;6.07;;;2.20;;
75620;SDS011;64574;48.506;-2.750;2023-05-17T08:38:01;8.88;;;2.58;;
75620;SDS011;64574;48.506;-2.750;2023-05-17T08:40:27;6.25;;;2.53;;
75620;SDS011;64574;48.506;-2.750;2023-05-17T08:42:53;4.57;;;2.17;;
75620;SDS011;64574;48.506;-2.750;2023-05-17T08:45:18;5.05;;;2.03;;
75620;SDS011;64574;48.506;-2.750;2023-05-17T08:47:46;6.25;;;3.70;;
75620;SDS011;64574;48.506;-2.750;2023-05-17T08:50:13;6.50;;;2.58;;
75620;SDS011;64574;48.506;-2.750;2023-05-17T08:52:39;6.75;;;2.20;;
75620;SDS011;64574;48.506;-2.750;2023-05-17T08:55:06;6.47;;;2.33;;
75620;SDS011;64574;48.506;-2.750;2023-05-17T08:57:33;4.85;;;2.35;;
75620;SDS011;64574;48.506;-2.750;2023-05-17T09:00:02;8.15;;;2.53;;
75620;SDS011;64574;48.506;-2.750;2023-05-17T09:02:37;6.88;;;3.10;;
75620;SDS011;64574;48.506;-2.750;2023-05-17T09:05:06;6.57;;;2.40;;
75620;SDS011;64574;48.506;-2.750;2023-05-17T09:07:33;8.13;;;2.60;;
75620;SDS011;64574;48.506;-2.750;2023-05-17T09:09:58;9.27;;;2.92;;
75620;SDS011;64574;48.506;-2.750;2023-05-17T09:12:24;7.22;;;3.22;;
75620;SDS011;64574;48.506;-2.750;2023-05-17T09:14:50;7.35;;;2.90;;
75620;SDS011;64574;48.506;-2.750;2023-05-17T09:17:19;7.72;;;2.88;;
75620;SDS011;64574;48.506;-2.750;2023-05-17T09:19:46;6.40;;;2.55;;
75620;SDS011;64574;48.506;-2.750;2023-05-17T09:22:14;11.43;;;2.97;;
75620;SDS011;64574;48.506;-2.750;2023-05-17T09:24:43;8.10;;;2.83;;
75620;SDS011;64574;48.506;-2.750;2023-05-17T09:27:13;7.35;;;2.72;;
75620;SDS011;64574;48.506;-2.750;2023-05-17T09:32:15;7.30;;;2.47;;
75620;SDS011;64574;48.506;-2.750;2023-05-17T09:34:42;12.50;;;3.35;;
75620;SDS011;64574;48.506;-2.750;2023-05-17T09:37:17;5.68;;;2.80;;
75620;SDS011;64574;48.506;-2.750;2023-05-17T09:39:44;8.18;;;3.05;;
75620;SDS011;64574;48.506;-2.750;2023-05-17T09:42:12;8.35;;;2.95;;
75620;SDS011;64574;48.506;-2.750;2023-05-17T09:44:45;6.72;;;2.90;;
75620;SDS011;64574;48.506;-2.750;2023-05-17T09:47:20;8.30;;;3.22;;
75620;SDS011;64574;48.506;-2.750;2023-05-17T09:49:56;6.97;;;2.92;;
75620;SDS011;64574;48.506;-2.750;2023-05-17T09:52:24;9.52;;;3.08;;
75620;SDS011;64574;48.506;-2.750;2023-05-17T09:54:56;10.63;;;3.33;;
75620;SDS011;64574;48.506;-2.750;2023-05-17T09:57:24;9.70;;;3.20;;
75620;SDS011;64574;48.506;-2.750;2023-05-17T09:59:53;12.15;;;3.33;;
75620;SDS011;64574;48.506;-2.750;2023-05-17T10:02:21;12.63;;;3.58;;
75620;SDS011;64574;48.506;-2.750;2023-05-17T10:04:57;8.10;;;3.40;;
75620;SDS011;64574;48.506;-2.750;2023-05-17T10:07:29;8.10;;;3.40;;
75620;SDS011;64574;48.506;-2.750;2023-05-17T10:09:56;8.90;;;3.30;;
75620;SDS011;64574;48.506;-2.750;2023-05-17T10:12:22;9.55;;;3.45;;
75620;SDS011;64574;48.506;-2.750;2023-05-17T10:14:51;8.23;;;3.53;;
75620;SDS011;64574;48.506;-2.750;2023-05-17T10:17:19;9.10;;;3.53;;
75620;SDS011;64574;48.506;-2.750;2023-05-17T10:19:46;8.23;;;3.08;;
75620;SDS011;64574;48.506;-2.750;2023-05-17T10:22:12;7.03;;;3.13;;
75620;SDS011;64574;48.506;-2.750;2023-05-17T10:24:40;8.90;;;3.25;;
75620;SDS011;64574;48.506;-2.750;2023-05-17T10:29:33;9.02;;;3.60;;
75620;SDS011;64574;48.506;-2.750;2023-05-17T10:32:02;7.90;;;3.70;;
75620;SDS011;64574;48.506;-2.750;2023-05-17T10:34:33;7.32;;;2.88;;
75620;SDS011;64574;48.506;-2.750;2023-05-17T10:39:25;6.90;;;4.00;;
75620;SDS011;64574;48.506;-2.750;2023-05-17T10:41:52;11.45;;;3.80;;
75620;SDS011;64574;48.506;-2.750;2023-05-17T10:44:19;8.07;;;3.45;;
75620;SDS011;64574;48.506;-2.750;2023-05-17T10:46:56;8.77;;;3.67;;
75620;SDS011;64574;48.506;-2.750;2023-05-17T10:49:30;9.75;;;3.55;;
75620;SDS011;64574;48.506;-2.750;2023-05-17T10:51:58;6.93;;;3.20;;
75620;SDS011;64574;48.506;-2.750;2023-05-17T10:54:35;11.73;;;3.38;;
75620;SDS011;64574;48.506;-2.750;2023-05-17T10:57:04;10.27;;;3.67;;
75620;SDS011;64574;48.506;-2.750;2023-05-17T10:59:31;9.85;;;3.65;;
75620;SDS011;64574;48.506;-2.750;2023-05-17T11:02:04;8.05;;;3.35;;
75620;SDS011;64574;48.506;-2.750;2023-05-17T11:04:35;8.57;;;3.60;;
75620;SDS011;64574;48.506;-2.750;2023-05-17T11:07:44;7.35;;;3.33;;
75620;SDS011;64574;48.506;-2.750;2023-05-17T11:09:54;7.57;;;3.10;;
75620;SDS011;64574;48.506;-2.750;2023-05-17T11:12:27;6.50;;;2.42;;
75620;SDS011;64574;48.506;-2.750;2023-05-17T11:15:10;7.05;;;3.17;;
75620;SDS011;64574;48.506;-2.750;2023-05-17T11:22:42;8.05;;;2.92;;
75620;SDS011;64574;48.506;-2.750;2023-05-17T11:27:54;7.10;;;2.83;;
75620;SDS011;64574;48.506;-2.750;2023-05-17T11:30:23;10.38;;;3.28;;
75620;SDS011;64574;48.506;-2.750;2023-05-17T11:32:52;6.20;;;2.63;;
75620;SDS011;64574;48.506;-2.750;2023-05-17T11:35:26;9.07;;;2.60;;
75620;SDS011;64574;48.506;-2.750;2023-05-17T11:40:52;6.90;;;2.35;;
75620;SDS011;64574;48.506;-2.750;2023-05-17T11:43:22;9.55;;;2.83;;
75620;SDS011;64574;48.506;-2.750;2023-05-17T11:45:53;6.82;;;2.55;;
75620;SDS011;64574;48.506;-2.750;2023-05-17T11:48:23;6.65;;;2.25;;
75620;SDS011;64574;48.506;-2.750;2023-05-17T11:50:51;10.70;;;2.65;;
75620;SDS011;64574;48.506;-2.750;2023-05-17T11:53:18;4.40;;;2.30;;
75620;SDS011;64574;48.506;-2.750;2023-05-17T11:55:46;6.05;;;3.08;;
75620;SDS011;64574;48.506;-2.750;2023-05-17T11:58:15;9.55;;;2.60;;
75620;SDS011;64574;48.506;-2.750;2023-05-17T12:00:42;8.30;;;2.28;;
75620;SDS011;64574;48.506;-2.750;2023-05-17T12:03:18;5.20;;;2.45;;
75620;SDS011;64574;48.506;-2.750;2023-05-17T12:05:49;7.30;;;2.50;;
75620;SDS011;64574;48.506;-2.750;2023-05-17T12:08:26;6.00;;;2.22;;
75620;SDS011;64574;48.506;-2.750;2023-05-17T12:10:51;5.28;;;2.58;;
75620;SDS011;64574;48.506;-2.750;2023-05-17T12:13:18;7.18;;;2.40;;
75620;SDS011;64574;48.506;-2.750;2023-05-17T12:15:47;6.78;;;2.55;;
75620;SDS011;64574;48.506;-2.750;2023-05-17T12:18:17;5.28;;;2.00;;
75620;SDS011;64574;48.506;-2.750;2023-05-17T12:20:57;4.63;;;2.25;;
75620;SDS011;64574;48.506;-2.750;2023-05-17T12:23:33;5.75;;;2.10;;
75620;SDS011;64574;48.506;-2.750;2023-05-17T12:26:04;5.88;;;2.33;;
75620;SDS011;64574;48.506;-2.750;2023-05-17T12:28:34;5.15;;;1.98;;
75620;SDS011;64574;48.506;-2.750;2023-05-17T12:31:01;5.03;;;2.22;;
75620;SDS011;64574;48.506;-2.750;2023-05-17T12:33:30;4.72;;;1.80;;
75620;SDS011;64574;48.506;-2.750;2023-05-17T12:35:58;7.32;;;1.90;;
75620;SDS011;64574;48.506;-2.750;2023-05-17T12:38:25;6.43;;;1.83;;
75620;SDS011;64574;48.506;-2.750;2023-05-17T12:40:56;5.60;;;2.03;;
75620;SDS011;64574;48.506;-2.750;2023-05-17T12:43:23;5.00;;;2.10;;
75620;SDS011;64574;48.506;-2.750;2023-05-17T12:45:49;5.68;;;2.05;;
75620;SDS011;64574;48.506;-2.750;2023-05-17T12:48:16;6.10;;;2.10;;
75620;SDS011;64574;48.506;-2.750;2023-05-17T12:50:42;6.00;;;2.20;;
75620;SDS011;64574;48.506;-2.750;2023-05-17T12:53:13;6.15;;;2.20;;
75620;SDS011;64574;48.506;-2.750;2023-05-17T12:55:38;5.55;;;2.80;;
75620;SDS011;64574;48.506;-2.750;2023-05-17T12:58:04;6.15;;;2.40;;
75620;SDS011;64574;48.506;-2.750;2023-05-17T13:00:30;9.35;;;2.20;;
75620;SDS011;64574;48.506;-2.750;2023-05-17T13:02:55;5.20;;;2.20;;
75620;SDS011;64574;48.506;-2.750;2023-05-17T13:05:21;6.32;;;2.00;;
75620;SDS011;64574;48.506;-2.750;2023-05-17T13:07:47;4.63;;;2.40;;
75620;SDS011;64574;48.506;-2.750;2023-05-17T13:10:19;6.38;;;2.08;;
75620;SDS011;64574;48.506;-2.750;2023-05-17T13:12:58;6.00;;;2.22;;
75620;SDS011;64574;48.506;-2.750;2023-05-17T13:15:28;7.28;;;2.63;;
75620;SDS011;64574;48.506;-2.750;2023-05-17T13:17:58;7.13;;;2.22;;
75620;SDS011;64574;48.506;-2.750;2023-05-17T13:20:25;4.75;;;2.15;;
75620;SDS011;64574;48.506;-2.750;2023-05-17T13:22:51;5.03;;;2.30;;
75620;SDS011;64574;48.506;-2.750;2023-05-17T13:25:17;4.35;;;2.40;;
75620;SDS011;64574;48.506;-2.750;2023-05-17T13:27:46;6.07;;;2.63;;
75620;SDS011;64574;48.506;-2.750;2023-05-17T13:30:17;6.40;;;2.85;;
75620;SDS011;64574;48.506;-2.750;2023-05-17T13:32:42;7.70;;;2.42;;
75620;SDS011;64574;48.506;-2.750;2023-05-17T13:35:08;6.25;;;2.53;;
75620;SDS011;64574;48.506;-2.750;2023-05-17T13:37:34;5.07;;;2.63;;
75620;SDS011;64574;48.506;-2.750;2023-05-17T13:40:03;5.88;;;2.33;;
75620;SDS011;64574;48.506;-2.750;2023-05-17T13:42:29;5.35;;;2.33;;
75620;SDS011;64574;48.506;-2.750;2023-05-17T13:44:56;6.03;;;2.28;;
75620;SDS011;64574;48.506;-2.750;2023-05-17T13:47:22;7.88;;;2.58;;
75620;SDS011;64574;48.506;-2.750;2023-05-17T13:49:47;5.93;;;1.92;;
75620;SDS011;64574;48.506;-2.750;2023-05-17T13:52:13;6.95;;;2.08;;
75620;SDS011;64574;48.506;-2.750;2023-05-17T13:54:39;3.72;;;2.03;;
75620;SDS011;64574;48.506;-2.750;2023-05-17T13:57:05;5.72;;;2.20;;
75620;SDS011;64574;48.506;-2.750;2023-05-17T13:59:31;5.00;;;2.10;;
75620;SDS011;64574;48.506;-2.750;2023-05-17T14:01:57;5.55;;;1.98;;
75620;SDS011;64574;48.506;-2.750;2023-05-17T14:04:22;7.25;;;2.60;;
75620;SDS011;64574;48.506;-2.750;2023-05-17T14:06:48;7.22;;;2.45;;
75620;SDS011;64574;48.506;-2.750;2023-05-17T14:09:15;7.07;;;2.78;;
75620;SDS011;64574;48.506;-2.750;2023-05-17T14:11:41;6.47;;;2.50;;
75620;SDS011;64574;48.506;-2.750;2023-05-17T14:14:07;5.65;;;2.53;;
75620;SDS011;64574;48.506;-2.750;2023-05-17T14:16:32;6.78;;;2.72;;
75620;SDS011;64574;48.506;-2.750;2023-05-17T14:18:58;6.13;;;2.10;;
75620;SDS011;64574;48.506;-2.750;2023-05-17T14:23:50;6.93;;;2.42;;
75620;SDS011;64574;48.506;-2.750;2023-05-17T14:26:16;6.18;;;2.20;;
75620;SDS011;64574;48.506;-2.750;2023-05-17T14:28:42;5.93;;;2.00;;
75620;SDS011;64574;48.506;-2.750;2023-05-17T14:31:07;7.00;;;2.20;;
75620;SDS011;64574;48.506;-2.750;2023-05-17T14:33:34;4.45;;;1.92;;
75620;SDS011;64574;48.506;-2.750;2023-05-17T14:36:00;8.10;;;3.05;;
75620;SDS011;64574;48.506;-2.750;2023-05-17T14:38:25;5.38;;;2.25;;
75620;SDS011;64574;48.506;-2.750;2023-05-17T14:40:51;5.22;;;2.03;;
75620;SDS011;64574;48.506;-2.750;2023-05-17T14:43:17;8.18;;;2.25;;
75620;SDS011;64574;48.506;-2.750;2023-05-17T14:45:44;7.70;;;2.55;;
75620;SDS011;64574;48.506;-2.750;2023-05-17T14:48:10;6.32;;;2.38;;
75620;SDS011;64574;48.506;-2.750;2023-05-17T14:50:35;6.00;;;2.70;;
75620;SDS011;64574;48.506;-2.750;2023-05-17T14:53:01;6.68;;;2.20;;
75620;SDS011;64574;48.506;-2.750;2023-05-17T14:55:27;5.68;;;2.13;;
75620;SDS011;64574;48.506;-2.750;2023-05-17T14:57:52;8.35;;;2.53;;
75620;SDS011;64574;48.506;-2.750;2023-05-17T15:00:19;5.15;;;2.80;;
75620;SDS011;64574;48.506;-2.750;2023-05-17T15:02:46;5.38;;;2.60;;
75620;SDS011;64574;48.506;-2.750;2023-05-17T15:05:11;6.65;;;2.60;;
75620;SDS011;64574;48.506;-2.750;2023-05-17T15:07:37;8.52;;;2.85;;
75620;SDS011;64574;48.506;-2.750;2023-05-17T15:10:03;10.32;;;2.90;;